Terminal Aerodrome Forecast
Issued by NWS Pittsburgh, PA

Current Version | Previous Version | Text Only | Print | Product List | Glossary Off
Versions: 1 2 3 4 5 6 7 8 9 10 11 12 13 14 15 16 17 18 19 20 21 22 23 24 25 26 27 28 29 30 31 32 33 34 35 36

000
FTUS41 KPBZ 271900 AAB
TAFPIT
TAF AMD
KPIT 271942Z 2720/2824 29009KT 3SM -SHSN BR OVC025
     FM272200 30008KT P6SM -SHSN OVC030
     FM280800 32007KT P6SM OVC035
     FM281600 25006KT P6SM BKN050=

USA.gov is the U.S. government's official web portal to all federal, state and local government web resources and services.